createdAt,value
2022-10-16T00:02:19.131Z,5.50
2022-10-16T00:04:46.489Z,8.60
2022-10-16T00:07:13.741Z,4.13
2022-10-16T00:09:41.117Z,3.78
2022-10-16T00:12:08.536Z,6.53
2022-10-16T00:14:35.724Z,6.72
2022-10-16T00:17:02.874Z,8.48
2022-10-16T00:19:30.251Z,5.95
2022-10-16T00:21:57.513Z,6.43
2022-10-16T00:24:24.786Z,6.13
2022-10-16T00:26:52.357Z,6.70
2022-10-16T00:29:19.508Z,4.00
2022-10-16T00:31:47.066Z,6.68
2022-10-16T00:34:14.273Z,7.97
2022-10-16T00:36:41.522Z,6.32
2022-10-16T00:39:08.719Z,6.70
2022-10-16T00:41:35.995Z,5.22
2022-10-16T00:44:05.066Z,5.28
2022-10-16T00:46:35.797Z,6.85
2022-10-16T00:49:14.040Z,6.20
2022-10-16T00:51:46.947Z,2.83
2022-10-16T00:54:25.494Z,7.20
2022-10-16T00:56:53.339Z,6.95
2022-10-16T00:59:34.715Z,5.50
2022-10-16T01:02:01.899Z,6.95
2022-10-16T01:04:33.334Z,6.10
2022-10-16T01:07:25.623Z,6.85
2022-10-16T01:10:04.407Z,7.05
2022-10-16T01:12:41.221Z,5.85
2022-10-16T01:15:16.730Z,4.15
2022-10-16T01:17:49.077Z,4.78
2022-10-16T01:20:16.206Z,8.00
2022-10-16T01:22:52.428Z,5.35
2022-10-16T01:25:46.226Z,6.03
2022-10-16T01:28:14.659Z,5.70
2022-10-16T01:30:43.251Z,5.30
2022-10-16T01:33:13.381Z,6.38
2022-10-16T01:35:43.589Z,4.90
2022-10-16T01:38:25.752Z,5.35
2022-10-16T01:40:57.280Z,5.03
2022-10-16T01:43:27.003Z,4.78
2022-10-16T01:45:54.501Z,5.82
2022-10-16T01:48:23.857Z,3.45
2022-10-16T01:51:07.470Z,9.52
2022-10-16T01:53:34.775Z,8.93
2022-10-16T01:56:03.473Z,6.25
2022-10-16T01:58:35.098Z,4.78
2022-10-16T02:01:04.065Z,4.38
2022-10-16T02:03:31.518Z,3.55
2022-10-16T02:05:59.430Z,5.40
2022-10-16T02:08:29.181Z,4.28
2022-10-16T02:10:56.902Z,6.25
2022-10-16T02:13:28.012Z,6.57
2022-10-16T02:15:56.256Z,7.13
2022-10-16T02:18:23.692Z,7.80
2022-10-16T02:20:54.605Z,5.32
2022-10-16T02:23:34.432Z,4.88
2022-10-16T02:26:03.492Z,5.03
2022-10-16T02:28:39.988Z,6.03
2022-10-16T02:31:10.466Z,4.20
2022-10-16T02:33:39.196Z,6.18
2022-10-16T02:36:06.559Z,3.88
2022-10-16T02:38:34.360Z,5.63
2022-10-16T02:41:01.461Z,5.20
2022-10-16T02:43:30.062Z,4.47
2022-10-16T02:48:24.214Z,4.50
2022-10-16T02:50:52.163Z,3.83
2022-10-16T02:53:19.315Z,5.65
2022-10-16T02:55:46.374Z,4.30
2022-10-16T02:58:13.488Z,4.82
2022-10-16T03:00:40.734Z,5.20
2022-10-16T03:03:08.101Z,6.03
2022-10-16T03:05:35.389Z,5.13
2022-10-16T03:08:02.522Z,6.63
2022-10-16T03:10:29.882Z,6.80
2022-10-16T03:12:56.963Z,4.68
2022-10-16T03:15:24.157Z,4.95
2022-10-16T03:17:51.233Z,3.63
2022-10-16T03:20:18.344Z,4.20
2022-10-16T03:22:47.030Z,4.80
2022-10-16T03:25:14.180Z,4.30
2022-10-16T03:27:41.662Z,3.65
2022-10-16T03:30:09.106Z,8.20
2022-10-16T03:35:08.541Z,4.60
2022-10-16T03:37:35.743Z,9.32
2022-10-16T03:40:03.112Z,3.10
2022-10-16T03:42:30.207Z,3.72
2022-10-16T03:44:57.584Z,7.40
2022-10-16T03:47:46.104Z,5.28
2022-10-16T03:50:15.620Z,4.60
2022-10-16T03:52:42.988Z,3.40
2022-10-16T03:55:10.748Z,5.50
2022-10-16T03:57:38.092Z,3.65
2022-10-16T04:00:05.484Z,4.93
2022-10-16T04:02:32.794Z,5.38
2022-10-16T04:05:00.040Z,3.42
2022-10-16T04:07:27.413Z,3.67
2022-10-16T04:09:55.085Z,5.35
2022-10-16T04:12:22.241Z,3.83
2022-10-16T04:14:49.396Z,3.58
2022-10-16T04:17:16.556Z,3.75
2022-10-16T04:19:43.900Z,2.22
2022-10-16T04:24:42.098Z,3.25
2022-10-16T04:27:09.281Z,6.03
2022-10-16T04:29:37.568Z,5.88
2022-10-16T04:32:04.674Z,6.68
2022-10-16T04:34:31.793Z,4.63
2022-10-16T04:36:58.851Z,2.67
2022-10-16T04:39:25.995Z,3.08
2022-10-16T04:41:53.563Z,4.95
2022-10-16T04:44:20.629Z,5.32
2022-10-16T04:46:47.740Z,3.08
2022-10-16T04:49:14.852Z,3.90
2022-10-16T04:51:41.987Z,5.30
2022-10-16T04:54:10.097Z,5.10
2022-10-16T04:56:44.036Z,3.65
2022-10-16T04:59:11.304Z,2.85
2022-10-16T05:01:38.543Z,3.88
2022-10-16T05:04:05.786Z,2.45
2022-10-16T05:06:32.983Z,3.90
2022-10-16T05:09:01.236Z,3.10
2022-10-16T05:11:28.512Z,3.88
2022-10-16T05:13:56.024Z,5.15
2022-10-16T05:16:23.421Z,6.03
2022-10-16T05:18:53.186Z,5.30
2022-10-16T05:21:23.492Z,3.67
2022-10-16T05:23:50.748Z,4.68
2022-10-16T05:26:18.877Z,5.57
2022-10-16T05:28:46.063Z,4.57
2022-10-16T05:31:13.193Z,4.47
2022-10-16T05:33:40.355Z,4.90
2022-10-16T05:36:10.439Z,6.82
2022-10-16T05:38:38.385Z,6.55
2022-10-16T05:41:06.476Z,5.40
2022-10-16T05:43:33.717Z,3.42
2022-10-16T05:46:05.851Z,6.55
2022-10-16T05:48:33.462Z,6.05
2022-10-16T05:51:10.633Z,6.30
2022-10-16T05:53:39.151Z,4.57
2022-10-16T05:56:07.092Z,8.10
2022-10-16T05:58:36.257Z,7.82
2022-10-16T06:01:08.193Z,5.85
2022-10-16T06:03:36.329Z,6.65
2022-10-16T06:06:12.357Z,7.15
2022-10-16T06:08:40.090Z,6.30
2022-10-16T06:11:08.298Z,5.80
2022-10-16T06:13:35.462Z,7.63
2022-10-16T06:16:02.969Z,4.57
2022-10-16T06:18:30.617Z,6.70
2022-10-16T06:20:58.673Z,4.93
2022-10-16T06:23:25.947Z,5.95
2022-10-16T06:25:53.279Z,5.25
2022-10-16T06:28:20.513Z,7.32
2022-10-16T06:30:47.757Z,6.93
2022-10-16T06:33:15.072Z,5.70
2022-10-16T06:35:44.499Z,6.05
2022-10-16T06:38:11.684Z,5.18
2022-10-16T06:40:38.970Z,6.43
2022-10-16T06:43:06.241Z,5.13
2022-10-16T06:45:33.443Z,6.93
2022-10-16T06:48:00.533Z,8.45
2022-10-16T06:50:27.750Z,7.88
2022-10-16T06:52:55.253Z,5.53
2022-10-16T06:55:22.525Z,5.03
2022-10-16T06:57:50.059Z,4.38
2022-10-16T07:00:17.510Z,7.28
2022-10-16T07:02:44.719Z,7.10
2022-10-16T07:05:11.886Z,4.85
2022-10-16T07:07:41.164Z,5.28
2022-10-16T07:10:08.518Z,9.15
2022-10-16T07:12:35.946Z,4.22
2022-10-16T07:15:03.181Z,7.55
2022-10-16T07:17:30.367Z,7.57
2022-10-16T07:19:57.585Z,6.05
2022-10-16T07:22:25.018Z,4.22
2022-10-16T07:24:53.596Z,9.60
2022-10-16T07:27:23.211Z,4.05
2022-10-16T07:29:50.476Z,7.15
2022-10-16T07:32:17.814Z,4.97
2022-10-16T07:34:44.970Z,7.40
2022-10-16T07:37:12.109Z,9.32
2022-10-16T07:39:39.283Z,8.68
2022-10-16T07:42:06.489Z,5.97
2022-10-16T07:44:33.679Z,4.40
2022-10-16T07:47:00.818Z,8.40
2022-10-16T07:49:27.878Z,6.95
2022-10-16T07:51:54.975Z,6.63
2022-10-16T07:54:22.091Z,7.47
2022-10-16T07:56:49.189Z,4.97
2022-10-16T07:59:16.431Z,6.57
2022-10-16T08:01:43.672Z,4.70
2022-10-16T08:04:11.820Z,6.00
2022-10-16T08:06:40.386Z,4.13
2022-10-16T08:11:35.423Z,9.40
2022-10-16T08:14:02.828Z,4.65
2022-10-16T08:16:30.719Z,4.55
2022-10-16T08:18:57.980Z,6.40
2022-10-16T08:21:25.235Z,7.43
2022-10-16T08:23:57.063Z,3.78
2022-10-16T08:26:25.829Z,4.25
2022-10-16T08:28:53.435Z,4.90
2022-10-16T08:31:23.180Z,7.22
2022-10-16T08:33:50.420Z,4.32
2022-10-16T08:36:17.877Z,4.70
2022-10-16T08:38:45.264Z,8.98
2022-10-16T08:41:15.500Z,5.50
2022-10-16T08:44:01.132Z,4.38
2022-10-16T08:46:40.626Z,4.75
2022-10-16T08:49:13.800Z,7.18
2022-10-16T08:51:43.429Z,6.70
2022-10-16T08:54:24.583Z,3.38
2022-10-16T08:56:51.753Z,5.10
2022-10-16T08:59:19.891Z,3.70
2022-10-16T09:01:48.458Z,4.78
2022-10-16T09:04:34.271Z,4.45
2022-10-16T09:07:11.214Z,6.05
2022-10-16T09:09:38.336Z,6.13
2022-10-16T09:12:05.460Z,5.15
2022-10-16T09:14:37.292Z,8.75
2022-10-16T09:17:22.496Z,6.20
2022-10-16T09:19:59.658Z,5.72
2022-10-16T09:22:29.627Z,10.75
2022-10-16T09:25:01.589Z,7.38
2022-10-16T09:34:48.021Z,4.55
2022-10-16T09:37:16.328Z,9.30
2022-10-16T09:39:49.428Z,8.30
2022-10-16T09:42:18.117Z,10.93
2022-10-16T09:44:48.869Z,8.30
2022-10-16T09:47:21.449Z,8.07
2022-10-16T09:50:00.844Z,7.07
2022-10-16T09:52:28.181Z,11.95
2022-10-16T09:54:55.273Z,7.88
2022-10-16T09:57:22.729Z,7.60
2022-10-16T09:59:50.994Z,8.10
2022-10-16T10:02:20.715Z,10.15
2022-10-16T10:04:50.772Z,12.40
2022-10-16T10:07:20.344Z,8.48
2022-10-16T10:09:47.978Z,8.25
2022-10-16T10:12:24.363Z,7.15
2022-10-16T10:14:54.886Z,4.78
2022-10-16T10:17:25.961Z,11.43
2022-10-16T10:19:58.785Z,8.27
2022-10-16T10:22:45.347Z,9.75
2022-10-16T10:25:12.456Z,9.50
2022-10-16T10:27:45.889Z,7.55
2022-10-16T10:32:51.478Z,10.77
2022-10-16T10:35:32.447Z,8.13
2022-10-16T10:38:14.090Z,10.07
2022-10-16T10:40:44.598Z,9.80
2022-10-16T10:43:30.797Z,7.75
2022-10-16T10:46:16.987Z,10.90
2022-10-16T10:49:16.699Z,7.07
2022-10-16T10:51:54.376Z,8.00
2022-10-16T10:54:24.599Z,10.95
2022-10-16T10:56:54.921Z,10.15
2022-10-16T10:59:40.725Z,9.85
2022-10-16T11:02:27.408Z,11.98
2022-10-16T11:05:09.020Z,9.00
2022-10-16T11:07:40.081Z,10.05
2022-10-16T11:10:15.414Z,7.80
2022-10-16T11:12:48.425Z,8.68
2022-10-16T11:15:31.222Z,8.98
2022-10-16T11:18:04.849Z,12.57
2022-10-16T11:20:34.283Z,5.75
2022-10-16T11:23:09.583Z,9.38
2022-10-16T11:25:36.783Z,6.57
2022-10-16T11:28:24.565Z,10.43
2022-10-16T11:31:20.006Z,8.43
2022-10-16T11:33:54.546Z,9.73
2022-10-16T11:36:24.791Z,8.38
2022-10-16T11:39:00.506Z,10.80
2022-10-16T11:41:49.290Z,16.95
2022-10-16T11:44:16.685Z,8.18
2022-10-16T11:46:59.066Z,10.55
2022-10-16T11:49:35.528Z,8.20
2022-10-16T11:52:25.370Z,10.52
2022-10-16T11:54:52.465Z,8.80
2022-10-16T11:57:29.784Z,10.38
2022-10-16T12:00:15.978Z,8.85
2022-10-16T12:02:53.591Z,10.02
2022-10-16T12:05:20.822Z,8.30
2022-10-16T12:08:06.524Z,10.35
2022-10-16T12:13:07.144Z,7.50
2022-10-16T12:15:57.733Z,9.25
2022-10-16T12:18:26.564Z,9.30
2022-10-16T12:21:06.014Z,7.13
2022-10-16T12:24:11.146Z,6.85
2022-10-16T12:26:42.851Z,8.75
2022-10-16T12:29:32.532Z,8.52
2022-10-16T12:31:59.928Z,8.02
2022-10-16T12:34:46.102Z,5.38
2022-10-16T12:37:15.690Z,9.38
2022-10-16T12:39:43.825Z,8.38
2022-10-16T12:42:23.045Z,6.07
2022-10-16T12:44:50.370Z,10.82
2022-10-16T12:47:25.097Z,8.77
2022-10-16T12:49:54.102Z,8.55
2022-10-16T12:52:31.700Z,12.40
2022-10-16T12:55:01.819Z,10.55
2022-10-16T12:57:29.686Z,10.63
2022-10-16T12:59:59.902Z,9.13
2022-10-16T13:05:32.527Z,8.00
2022-10-16T13:08:00.110Z,9.25
2022-10-16T13:10:27.709Z,7.78
2022-10-16T13:13:14.671Z,8.05
2022-10-16T13:15:49.115Z,10.40
2022-10-16T13:20:52.545Z,9.45
2022-10-16T13:23:34.550Z,10.10
2022-10-16T13:26:04.702Z,10.40
2022-10-16T13:28:35.341Z,9.52
2022-10-16T13:31:03.081Z,7.68
2022-10-16T13:33:37.986Z,8.23
2022-10-16T13:36:06.068Z,13.15
2022-10-16T13:38:36.935Z,8.85
2022-10-16T13:41:05.936Z,6.07
2022-10-16T13:43:37.864Z,10.90
2022-10-16T13:46:09.352Z,10.50
2022-10-16T13:48:37.037Z,9.07
2022-10-16T13:51:08.733Z,8.40
2022-10-16T13:53:37.601Z,7.57
2022-10-16T13:56:06.248Z,12.50
2022-10-16T13:58:34.950Z,5.13
2022-10-16T14:01:18.161Z,7.20
2022-10-16T14:03:46.292Z,8.32
2022-10-16T14:06:16.806Z,7.25
2022-10-16T14:08:45.495Z,8.68
2022-10-16T14:11:13.177Z,7.72
2022-10-16T14:13:44.865Z,9.82
2022-10-16T14:16:17.754Z,7.55
2022-10-16T14:18:47.850Z,6.93
2022-10-16T14:21:16.879Z,9.85
2022-10-16T14:23:45.101Z,11.80
2022-10-16T14:26:14.340Z,8.65
2022-10-16T14:28:42.144Z,7.55
2022-10-16T14:31:21.776Z,7.75
2022-10-16T14:33:48.984Z,10.98
2022-10-16T14:36:18.602Z,12.40
2022-10-16T14:38:59.424Z,11.48
2022-10-16T14:41:27.043Z,7.85
2022-10-16T14:43:58.271Z,12.57
2022-10-16T14:46:31.434Z,7.32
2022-10-16T14:49:04.102Z,12.48
2022-10-16T14:51:31.448Z,6.85
2022-10-16T14:54:00.334Z,9.63
2022-10-16T14:56:33.098Z,9.85
2022-10-16T14:59:00.979Z,7.72
2022-10-16T15:01:28.219Z,9.05
2022-10-16T15:03:57.254Z,8.80
2022-10-16T15:06:24.610Z,9.65
2022-10-16T15:08:52.165Z,13.63
2022-10-16T15:11:20.650Z,10.18
2022-10-16T15:13:48.520Z,9.98
2022-10-16T15:16:17.931Z,10.50
2022-10-16T15:18:45.330Z,11.40
2022-10-16T15:21:30.054Z,12.55
2022-10-16T15:23:57.742Z,8.57
2022-10-16T15:26:28.944Z,9.45
2022-10-16T15:28:56.645Z,9.30
2022-10-16T15:32:02.010Z,15.20
2022-10-16T15:34:30.151Z,16.10
2022-10-16T15:36:58.871Z,9.95
2022-10-16T15:39:26.142Z,9.65
2022-10-16T15:41:54.297Z,14.35
2022-10-16T15:44:24.244Z,11.43
2022-10-16T15:46:52.018Z,12.90
2022-10-16T15:49:19.180Z,14.93
2022-10-16T15:51:47.546Z,13.15
2022-10-16T15:54:14.752Z,13.45
2022-10-16T15:56:41.843Z,17.90
2022-10-16T15:59:09.165Z,17.00
2022-10-16T16:01:36.760Z,18.67
2022-10-16T16:04:11.054Z,24.52
2022-10-16T16:06:45.696Z,15.02
2022-10-16T16:09:14.763Z,116.68
2022-10-16T16:11:42.071Z,172.90
2022-10-16T16:14:19.034Z,26.45
2022-10-16T16:16:46.390Z,16.55
2022-10-16T16:19:13.576Z,20.67
2022-10-16T16:21:41.033Z,30.33
2022-10-16T16:24:09.263Z,12.48
2022-10-16T16:26:40.456Z,12.60
2022-10-16T16:29:08.702Z,13.35
2022-10-16T16:31:36.974Z,22.92
2022-10-16T16:34:04.851Z,23.05
2022-10-16T16:36:32.293Z,14.27
2022-10-16T16:38:59.505Z,14.07
2022-10-16T16:41:28.464Z,13.05
2022-10-16T16:43:56.218Z,15.05
2022-10-16T16:46:23.572Z,10.35
2022-10-16T16:48:51.410Z,13.30
2022-10-16T16:51:20.481Z,16.38
2022-10-16T16:53:48.968Z,20.38
2022-10-16T16:56:16.068Z,14.05
2022-10-16T16:58:43.315Z,17.13
2022-10-16T17:01:20.765Z,11.95
2022-10-16T17:03:50.803Z,13.85
2022-10-16T17:06:20.631Z,13.57
2022-10-16T17:08:49.423Z,17.38
2022-10-16T17:11:18.217Z,18.50
2022-10-16T17:13:45.724Z,18.08
2022-10-16T17:16:13.106Z,14.52
2022-10-16T17:18:40.685Z,19.05
2022-10-16T17:21:10.207Z,13.15
2022-10-16T17:23:41.086Z,16.58
2022-10-16T17:26:09.227Z,19.63
2022-10-16T17:28:37.052Z,13.60
2022-10-16T17:33:43.639Z,20.00
2022-10-16T17:36:11.956Z,12.25
2022-10-16T17:38:39.135Z,12.63
2022-10-16T17:41:16.971Z,15.13
2022-10-16T17:43:44.237Z,16.30
2022-10-16T17:46:12.323Z,15.00
2022-10-16T17:48:40.442Z,13.65
2022-10-16T17:51:08.565Z,17.08
2022-10-16T17:53:36.385Z,15.05
2022-10-16T17:56:04.850Z,16.45
2022-10-16T17:58:32.306Z,16.58
2022-10-16T18:00:59.552Z,15.07
2022-10-16T18:03:27.201Z,18.38
2022-10-16T18:05:55.349Z,12.65
2022-10-16T18:08:26.409Z,13.07
2022-10-16T18:10:56.120Z,17.58
2022-10-16T18:13:23.398Z,14.75
2022-10-16T18:16:00.939Z,14.38
2022-10-16T18:18:29.672Z,13.20
2022-10-16T18:21:00.597Z,13.52
2022-10-16T18:23:28.126Z,14.57
2022-10-16T18:25:55.691Z,10.10
2022-10-16T18:33:52.478Z,19.20
2022-10-16T18:36:21.430Z,15.73
2022-10-16T18:38:48.850Z,11.15
2022-10-16T18:41:16.052Z,16.45
2022-10-16T18:43:43.284Z,16.73
2022-10-16T18:46:21.178Z,23.65
2022-10-16T18:48:49.010Z,17.55
2022-10-16T18:51:17.704Z,26.25
2022-10-16T18:53:45.807Z,30.70
2022-10-16T18:56:23.037Z,26.15
2022-10-16T19:01:34.366Z,27.58
2022-10-16T19:12:08.499Z,24.70
2022-10-16T19:14:36.654Z,14.68
2022-10-16T19:19:44.968Z,22.88
2022-10-16T19:22:14.219Z,20.83
2022-10-16T19:24:42.143Z,15.32
2022-10-16T19:27:09.339Z,14.30
2022-10-16T19:29:36.763Z,24.15
2022-10-16T19:32:07.310Z,17.45
2022-10-16T19:34:34.890Z,15.60
2022-10-16T19:37:02.090Z,15.73
2022-10-16T19:39:29.447Z,15.85
2022-10-16T19:41:56.657Z,16.30
2022-10-16T19:44:23.851Z,20.30
2022-10-16T19:46:51.224Z,20.02
2022-10-16T19:49:21.949Z,17.38
2022-10-16T19:51:50.276Z,17.77
2022-10-16T19:54:17.674Z,16.40
2022-10-16T19:56:45.458Z,19.75
2022-10-16T19:59:16.485Z,16.30
2022-10-16T20:01:43.883Z,14.77
2022-10-16T20:04:11.374Z,15.88
2022-10-16T20:06:38.534Z,17.00
2022-10-16T20:09:05.879Z,14.10
2022-10-16T20:11:34.213Z,15.88
2022-10-16T20:14:01.522Z,14.55
2022-10-16T20:16:29.929Z,12.82
2022-10-16T20:18:57.454Z,14.30
2022-10-16T20:21:26.164Z,9.98
2022-10-16T20:23:53.359Z,10.55
2022-10-16T20:26:22.187Z,12.43
2022-10-16T20:28:49.455Z,10.88
2022-10-16T20:31:19.880Z,16.30
2022-10-16T20:33:47.140Z,8.88
2022-10-16T20:36:15.243Z,9.52
2022-10-16T20:38:43.513Z,12.55
2022-10-16T20:41:11.459Z,10.88
2022-10-16T20:43:40.915Z,10.45
2022-10-16T20:46:13.469Z,9.48
2022-10-16T20:48:44.586Z,8.93
2022-10-16T20:51:16.043Z,8.65
2022-10-16T20:53:44.022Z,12.50
2022-10-16T20:56:12.627Z,9.27
2022-10-16T20:58:41.871Z,11.02
2022-10-16T21:01:09.958Z,9.63
2022-10-16T21:03:37.733Z,9.75
2022-10-16T21:06:05.418Z,9.88
2022-10-16T21:08:35.514Z,9.65
2022-10-16T21:11:03.064Z,8.40
2022-10-16T21:13:30.752Z,10.85
2022-10-16T21:15:57.899Z,11.70
2022-10-16T21:18:25.042Z,10.65
2022-10-16T21:20:52.103Z,12.68
2022-10-16T21:23:20.169Z,10.15
2022-10-16T21:25:50.411Z,8.60
2022-10-16T21:28:18.356Z,10.00
2022-10-16T21:30:45.919Z,10.25
2022-10-16T21:33:12.995Z,11.27
2022-10-16T21:35:40.110Z,11.88
2022-10-16T21:38:07.862Z,8.73
2022-10-16T21:40:35.023Z,8.95
2022-10-16T21:43:04.489Z,11.60
2022-10-16T21:45:35.290Z,9.90
2022-10-16T21:48:02.566Z,10.27
2022-10-16T21:50:29.660Z,10.02
2022-10-16T21:52:56.756Z,8.70
2022-10-16T21:55:23.917Z,9.68
2022-10-16T21:57:51.248Z,9.25
2022-10-16T22:00:18.410Z,7.18
2022-10-16T22:02:45.484Z,8.80
2022-10-16T22:05:12.585Z,8.00
2022-10-16T22:07:39.665Z,9.90
2022-10-16T22:10:07.077Z,7.30
2022-10-16T22:12:34.311Z,7.85
2022-10-16T22:15:01.503Z,9.85
2022-10-16T22:17:28.892Z,10.90
2022-10-16T22:19:56.206Z,4.00
2022-10-16T22:22:23.450Z,8.30
2022-10-16T22:24:50.848Z,9.50
2022-10-16T22:27:18.084Z,7.00
2022-10-16T22:29:45.197Z,11.35
2022-10-16T22:32:12.317Z,8.75
2022-10-16T22:34:39.639Z,10.13
2022-10-16T22:37:06.740Z,7.43
2022-10-16T22:39:33.912Z,8.45
2022-10-16T22:42:02.030Z,13.90
2022-10-16T22:44:29.141Z,9.40
2022-10-16T22:46:56.821Z,10.57
2022-10-16T22:49:24.565Z,10.13
2022-10-16T22:54:23.644Z,10.45
2022-10-16T22:56:50.843Z,9.15
2022-10-16T22:59:18.284Z,10.05
2022-10-16T23:01:45.356Z,8.50
2022-10-16T23:04:12.451Z,8.18
2022-10-16T23:06:39.528Z,8.32
2022-10-16T23:09:06.605Z,12.23
2022-10-16T23:11:33.960Z,8.13
2022-10-16T23:14:01.043Z,8.63
2022-10-16T23:16:28.169Z,8.98
2022-10-16T23:18:55.319Z,10.07
2022-10-16T23:21:23.657Z,10.57
2022-10-16T23:23:50.938Z,9.18
2022-10-16T23:26:25.913Z,10.80
2022-10-16T23:28:53.117Z,9.85
2022-10-16T23:31:20.618Z,11.38
2022-10-16T23:33:47.681Z,13.05
2022-10-16T23:36:16.628Z,9.43
2022-10-16T23:38:43.792Z,11.90
2022-10-16T23:41:11.271Z,10.05
2022-10-16T23:43:38.421Z,9.80
2022-10-16T23:46:06.434Z,8.10
2022-10-16T23:48:33.574Z,11.98
2022-10-16T23:51:00.835Z,12.02
2022-10-16T23:53:28.156Z,7.80
2022-10-16T23:55:55.333Z,11.48
2022-10-16T23:58:22.640Z,14.85
